Time;durP1;ratioP1;P1;durP2;ratioP2;P2;SDS_P1;SDS_P2;PMS_P1;PMS_P2;Temp;Humidity;BMP_temperature;BMP_pressure;BME280_temperature;BME280_humidity;BME280_pressure;Samples;Min_cycle;Max_cycle;Signal;HPM_P1;HPM_P2
2022/07/26 00:00:08;;;;;;;3.52;2.50;;;;;;;21.43;100.00;99184.21;1750480;81;20988;-66
2022/07/26 00:02:35;;;;;;;5.95;2.77;;;;;;;21.38;100.00;99183.41;1746387;81;21493;-66
2022/07/26 00:05:01;;;;;;;2.42;2.22;;;;;;;21.35;100.00;99177.80;1749748;81;21401;-66
2022/07/26 00:07:28;;;;;;;3.12;2.65;;;;;;;21.32;100.00;99182.22;1806902;78;21461;-66
2022/07/26 00:09:55;;;;;;;6.37;3.30;;;;;;;21.31;100.00;99173.61;1803405;78;21421;-66
2022/07/26 00:12:23;;;;;;;4.78;2.90;;;;;;;21.28;100.00;99181.41;1802304;78;21010;-66
2022/07/26 00:14:49;;;;;;;4.70;2.47;;;;;;;21.22;100.00;99174.62;1807197;78;21459;-65
2022/07/26 00:17:17;;;;;;;5.12;2.75;;;;;;;21.15;100.00;99170.61;1804073;78;20968;-65
2022/07/26 00:19:44;;;;;;;3.42;2.35;;;;;;;21.13;100.00;99173.62;1803629;78;21481;-65
2022/07/26 00:24:55;;;;;;;3.83;2.50;;;;;;;21.08;100.00;99176.24;1800391;78;20988;-67
2022/07/26 00:27:21;;;;;;;4.87;2.30;;;;;;;21.14;100.00;99177.42;1804578;78;20867;-66
2022/07/26 00:29:48;;;;;;;5.40;2.75;;;;;;;21.24;100.00;99174.41;1807052;78;21018;-66
2022/07/26 00:32:14;;;;;;;5.12;2.47;;;;;;;21.31;100.00;99173.61;1799265;78;21459;-67
2022/07/26 00:34:41;;;;;;;3.33;2.50;;;;;;;21.30;100.00;99167.81;1804829;78;21377;-66
2022/07/26 00:37:07;;;;;;;6.90;2.70;;;;;;;21.32;100.00;99171.02;1802872;78;20991;-66
2022/07/26 00:39:34;;;;;;;6.78;2.90;;;;;;;21.35;100.00;99169.40;1799571;78;20996;-66
2022/07/26 00:42:00;;;;;;;4.65;2.52;;;;;;;21.27;100.00;99162.40;1795998;78;20959;-67
2022/07/26 00:44:39;;;;;;;3.15;2.45;;;;;;;21.19;100.00;99165.63;1806562;78;21564;-66
2022/07/26 00:47:06;;;;;;;8.90;2.77;;;;;;;21.11;100.00;99169.02;1804623;78;20964;-66
2022/07/26 00:49:32;;;;;;;4.22;2.80;;;;;;;21.01;100.00;99165.84;1802648;78;21460;-66
2022/07/26 00:51:59;;;;;;;4.15;2.67;;;;;;;20.88;100.00;99165.39;1800051;78;21015;-66
2022/07/26 00:54:26;;;;;;;4.58;2.67;;;;;;;20.80;100.00;99158.20;1802883;78;20951;-67
2022/07/26 00:56:53;;;;;;;6.50;2.95;;;;;;;20.71;100.00;99162.00;1807221;78;21085;-66
2022/07/26 00:59:20;;;;;;;6.75;2.62;;;;;;;20.67;100.00;99162.00;1804135;78;20972;-66
2022/07/26 01:01:46;;;;;;;4.17;2.40;;;;;;;20.61;100.00;99164.38;1803571;78;20974;-66
2022/07/26 01:04:13;;;;;;;3.30;2.83;;;;;;;20.60;100.00;99154.98;1807653;78;21515;-65
2022/07/26 01:06:41;;;;;;;5.08;3.17;;;;;;;20.56;100.00;99154.98;1803597;78;20988;-66
2022/07/26 01:09:08;;;;;;;3.47;2.80;;;;;;;20.48;100.00;99157.56;1803575;78;21118;-66
2022/07/26 01:11:34;;;;;;;3.05;2.27;;;;;;;20.40;100.00;99154.75;1799503;78;20968;-66
2022/07/26 01:14:01;;;;;;;5.05;2.58;;;;;;;20.37;100.00;99155.55;1805501;78;20895;-66
2022/07/26 01:16:28;;;;;;;4.80;2.90;;;;;;;20.33;100.00;99147.76;1804564;78;20932;-66
2022/07/26 01:18:54;;;;;;;5.22;3.30;;;;;;;20.28;100.00;99153.12;1806930;78;21007;-66
2022/07/26 01:21:29;;;;;;;3.80;2.65;;;;;;;20.24;100.00;99159.31;1804564;78;21163;-67
2022/07/26 01:23:55;;;;;;;6.75;2.30;;;;;;;20.19;100.00;99157.71;1804075;78;21471;-66
2022/07/26 01:26:22;;;;;;;5.83;2.70;;;;;;;20.14;100.00;99160.08;1799760;78;21017;-67
2022/07/26 01:28:48;;;;;;;5.92;2.60;;;;;;;20.14;100.00;99167.88;1804102;78;20928;-67
2022/07/26 01:31:15;;;;;;;2.55;2.27;;;;;;;20.17;100.00;99176.06;1807234;78;20958;-67
2022/07/26 01:33:41;;;;;;;4.10;2.55;;;;;;;20.22;100.00;99168.70;1803847;78;21743;-67
2022/07/26 01:36:11;;;;;;;4.87;2.67;;;;;;;20.16;100.00;99170.28;1803042;78;21067;-66
2022/07/26 01:38:39;;;;;;;7.30;2.98;;;;;;;20.14;100.00;99166.48;1799438;78;20983;-67
2022/07/26 01:41:08;;;;;;;7.97;3.00;;;;;;;20.09;100.00;99160.46;1804428;78;20924;-67
2022/07/26 01:43:36;;;;;;;4.12;2.95;;;;;;;19.98;100.00;99163.20;1808071;78;20975;-68
2022/07/26 01:46:06;;;;;;;3.75;2.65;;;;;;;19.94;100.00;99163.19;1801673;78;21125;-66
2022/07/26 01:48:32;;;;;;;6.97;2.60;;;;;;;19.92;100.00;99157.99;1801430;78;20899;-67
2022/07/26 01:50:59;;;;;;;4.85;2.87;;;;;;;19.92;100.00;99160.79;1799221;78;20820;-67
2022/07/26 01:53:26;;;;;;;7.90;2.37;;;;;;;19.91;100.00;99168.14;1805217;78;20959;-67
2022/07/26 01:55:52;;;;;;;4.50;2.95;;;;;;;19.97;100.00;99168.58;1803398;78;20968;-67
2022/07/26 01:58:19;;;;;;;4.78;2.50;;;;;;;20.02;100.00;99170.99;1800870;78;21512;-67
2022/07/26 02:00:45;;;;;;;3.50;2.40;;;;;;;20.07;100.00;99162.25;1805511;78;20954;-67
2022/07/26 02:03:11;;;;;;;6.40;2.37;;;;;;;20.03;100.00;99157.20;1806388;78;20971;-67
2022/07/26 02:05:38;;;;;;;6.45;3.50;;;;;;;20.10;100.00;99156.45;1802962;78;21023;-67
2022/07/26 02:08:04;;;;;;;5.35;3.12;;;;;;;20.12;100.00;99161.88;1801999;78;20899;-66
2022/07/26 02:13:16;;;;;;;4.28;2.55;;;;;;;20.02;100.00;99152.82;1806785;78;21456;-67
2022/07/26 02:15:42;;;;;;;8.80;2.70;;;;;;;19.97;100.00;99147.61;1801211;78;21428;-67
2022/07/26 02:18:08;;;;;;;5.37;2.42;;;;;;;19.94;100.00;99149.99;1802095;78;20917;-67
2022/07/26 02:20:35;;;;;;;5.33;3.17;;;;;;;19.90;100.00;99147.80;1807048;78;21054;-66
2022/07/26 02:23:01;;;;;;;11.53;3.12;;;;;;;19.88;100.00;99150.17;1800053;78;21296;-67
2022/07/26 02:25:28;;;;;;;11.93;2.67;;;;;;;19.84;100.00;99149.34;1803217;78;20972;-67
2022/07/26 02:27:54;;;;;;;8.60;3.25;;;;;;;19.81;100.00;99149.55;1803218;78;21112;-67
2022/07/26 02:30:21;;;;;;;6.60;3.02;;;;;;;19.87;100.00;99151.38;1743636;81;20956;-67
2022/07/26 02:32:47;;;;;;;7.05;2.75;;;;;;;19.88;100.00;99145.17;1737334;81;21049;-67
2022/07/26 02:35:14;;;;;;;3.80;2.62;;;;;;;19.85;100.00;99152.36;1746614;80;21104;-67
2022/07/26 02:37:40;;;;;;;3.55;2.80;;;;;;;19.86;100.00;99147.59;1744194;81;20945;-67
2022/07/26 02:40:09;;;;;;;2.87;2.42;;;;;;;19.88;100.00;99141.79;1749000;81;20984;-66
2022/07/26 02:42:35;;;;;;;6.87;2.70;;;;;;;19.86;100.00;99154.57;1745721;81;21570;-67
2022/07/26 02:45:02;;;;;;;3.72;2.42;;;;;;;19.80;100.00;99153.55;1749754;81;20932;-67
2022/07/26 02:47:30;;;;;;;3.08;2.50;;;;;;;19.86;100.00;99155.35;1748300;81;21514;-67
2022/07/26 02:49:56;;;;;;;4.33;3.22;;;;;;;19.89;100.00;99150.98;1746707;81;20967;-67
2022/07/26 02:52:23;;;;;;;3.92;3.00;;;;;;;19.90;100.00;99154.78;1749493;81;21007;-67
2022/07/26 02:54:49;;;;;;;4.90;2.87;;;;;;;19.94;100.00;99156.20;1745138;81;21009;-67
2022/07/26 02:57:15;;;;;;;7.20;2.85;;;;;;;19.95;100.00;99155.80;1746016;81;21035;-66
2022/07/26 02:59:42;;;;;;;4.67;2.83;;;;;;;19.99;100.00;99150.81;1749257;80;21557;-67
2022/07/26 03:02:08;;;;;;;5.12;2.75;;;;;;;20.04;100.00;99155.47;1749907;81;20937;-67
2022/07/26 03:04:35;;;;;;;7.90;3.02;;;;;;;20.04;100.00;99161.66;1751215;81;20932;-67
2022/07/26 03:07:01;;;;;;;4.03;2.70;;;;;;;20.00;100.00;99156.59;1744689;81;20980;-66
2022/07/26 03:09:28;;;;;;;5.92;2.85;;;;;;;20.02;100.00;99151.42;1748005;81;20992;-66
2022/07/26 03:11:54;;;;;;;21.02;3.92;;;;;;;20.06;100.00;99152.28;1746316;80;21110;-67
2022/07/26 03:14:20;;;;;;;4.92;2.95;;;;;;;20.04;100.00;99154.66;1744143;81;21024;-67
2022/07/26 03:16:47;;;;;;;4.80;3.10;;;;;;;20.07;100.00;99153.88;1749623;81;20929;-67
2022/07/26 03:19:13;;;;;;;4.53;3.00;;;;;;;20.12;100.00;99153.48;1746478;81;21071;-67
2022/07/26 03:21:40;;;;;;;3.83;3.10;;;;;;;20.16;100.00;99149.31;1750018;81;21036;-67
2022/07/26 03:24:06;;;;;;;3.75;3.17;;;;;;;20.19;100.00;99154.92;1748565;80;21449;-66
2022/07/26 03:26:33;;;;;;;9.23;3.50;;;;;;;20.24;100.00;99157.11;1749367;80;21086;-66
2022/07/26 03:28:59;;;;;;;6.42;3.35;;;;;;;20.20;100.00;99158.49;1741486;81;21000;-66
2022/07/26 03:31:25;;;;;;;8.95;4.22;;;;;;;20.16;100.00;99161.27;1748850;81;20988;-67
2022/07/26 03:33:52;;;;;;;5.40;3.92;;;;;;;20.15;100.00;99163.07;1748491;81;21018;-67
2022/07/26 03:36:18;;;;;;;7.25;4.00;;;;;;;20.12;100.00;99159.08;1738317;81;21450;-67
2022/07/26 03:38:44;;;;;;;9.78;4.22;;;;;;;20.16;100.00;99152.11;1738990;81;20932;-66
2022/07/26 03:41:11;;;;;;;6.42;4.03;;;;;;;20.18;100.00;99156.09;1738752;81;20861;-67
2022/07/26 03:43:37;;;;;;;7.00;3.83;;;;;;;20.21;100.00;99160.70;1742855;81;20996;-67
2022/07/26 03:46:04;;;;;;;4.80;3.90;;;;;;;20.26;100.00;99161.72;1754940;81;20958;-67
2022/07/26 03:48:30;;;;;;;6.22;4.10;;;;;;;20.31;100.00;99154.34;1771891;80;21135;-67
2022/07/26 03:50:57;;;;;;;5.80;4.12;;;;;;;20.38;100.00;99161.36;1748041;81;21032;-67
2022/07/26 03:53:23;;;;;;;4.55;3.65;;;;;;;20.44;100.00;99157.55;1742373;81;21039;-66
2022/07/26 03:58:35;;;;;;;4.55;2.77;;;;;;;20.61;100.00;99166.39;1751149;81;21054;-66
2022/07/26 04:01:02;;;;;;;4.92;3.08;;;;;;;20.68;100.00;99167.20;1747855;81;21393;-66
2022/07/26 04:03:28;;;;;;;2.83;2.27;;;;;;;20.78;100.00;99167.00;1752017;81;21446;-67
2022/07/26 04:05:54;;;;;;;5.65;3.00;;;;;;;20.86;100.00;99167.81;1751404;80;20991;-66
2022/07/26 04:08:21;;;;;;;5.97;3.27;;;;;;;20.95;100.00;99173.64;1748515;81;21091;-68
2022/07/26 04:10:49;;;;;;;4.33;2.95;;;;;;;21.00;100.00;99174.02;1754680;80;21004;-67
2022/07/26 04:13:17;;;;;;;3.60;2.67;;;;;;;21.04;100.00;99169.83;1751857;81;21689;-66
2022/07/26 04:15:44;;;;;;;5.95;3.27;;;;;;;21.10;100.00;99176.62;1753339;81;21519;-66
2022/07/26 04:18:10;;;;;;;10.60;3.10;;;;;;;21.13;100.00;99184.24;1752762;81;21430;-67
2022/07/26 04:20:36;;;;;;;4.45;2.75;;;;;;;21.17;100.00;99180.05;1750434;81;21594;-65
2022/07/26 04:23:03;;;;;;;6.58;3.02;;;;;;;21.22;100.00;99181.63;1755000;81;21333;-66
2022/07/26 04:25:29;;;;;;;7.15;3.00;;;;;;;21.23;100.00;99174.81;1753727;81;21098;-67
2022/07/26 04:27:56;;;;;;;4.08;3.05;;;;;;;21.27;100.00;99178.42;1748523;81;21028;-66
2022/07/26 04:30:22;;;;;;;4.72;3.08;;;;;;;21.27;100.00;99178.42;1749426;81;20960;-67
2022/07/26 04:32:49;;;;;;;4.35;3.10;;;;;;;21.34;100.00;99182.59;1752886;80;20990;-66
2022/07/26 04:35:15;;;;;;;5.70;3.12;;;;;;;21.54;100.00;99179.38;1752691;80;21046;-66
2022/07/26 04:37:42;;;;;;;6.95;3.27;;;;;;;21.61;100.00;99181.36;1754510;81;21154;-67
2022/07/26 04:40:10;;;;;;;3.83;3.02;;;;;;;21.67;100.00;99179.73;1753695;81;21031;-65
2022/07/26 04:42:36;;;;;;;6.15;3.40;;;;;;;21.75;100.00;99179.13;1747166;81;21539;-65
2022/07/26 04:45:03;;;;;;;7.50;3.42;;;;;;;21.64;100.00;99187.56;1749050;81;21586;-66
2022/07/26 04:47:30;;;;;;;7.75;3.40;;;;;;;21.63;100.00;99186.75;1748204;81;20984;-65
2022/07/26 04:49:56;;;;;;;12.78;3.60;;;;;;;21.87;100.00;99188.51;1748742;81;21481;-66
2022/07/26 04:52:23;;;;;;;4.45;3.60;;;;;;;21.96;100.00;99190.08;1747544;80;21023;-66
2022/07/26 04:54:49;;;;;;;8.08;3.60;;;;;;;21.81;100.00;99195.75;1736613;81;21491;-66
2022/07/26 04:57:18;;;;;;;8.93;3.60;;;;;;;21.79;100.00;99190.34;1792402;78;21070;-64
2022/07/26 04:59:44;;;;;;;11.48;4.10;;;;;;;21.80;100.00;99184.95;1800012;78;21507;-64
2022/07/26 05:02:13;;;;;;;11.50;3.70;;;;;;;21.87;100.00;99189.91;1790437;79;22002;-64
2022/07/26 05:04:39;;;;;;;8.00;3.80;;;;;;;21.93;100.00;99193.70;1813605;78;20971;-64
2022/07/26 05:07:05;;;;;;;8.20;4.40;;;;;;;21.96;100.00;99190.89;1786357;78;20976;-63
2022/07/26 05:09:32;;;;;;;8.93;4.35;;;;;;;22.00;100.00;99196.48;1749692;80;21043;-64
2022/07/26 05:11:58;;;;;;;15.93;4.90;;;;;;;22.01;100.00;99200.28;1801769;78;21121;-64
2022/07/26 05:14:24;;;;;;;13.62;5.17;;;;;;;21.97;100.00;99196.68;1806171;78;21128;-65
2022/07/26 05:16:51;;;;;;;8.23;4.20;;;;;;;22.00;100.00;99194.49;1804967;78;21039;-65
2022/07/26 05:19:17;;;;;;;6.47;3.62;;;;;;;22.07;100.00;99196.47;1807546;78;20952;-64
2022/07/26 05:21:44;;;;;;;7.85;4.33;;;;;;;22.18;100.00;99198.42;1799046;78;21006;-64
2022/07/26 05:24:10;;;;;;;5.37;4.10;;;;;;;22.26;100.00;99202.80;1805479;78;20960;-64
2022/07/26 05:26:37;;;;;;;7.62;4.45;;;;;;;22.31;100.00;99188.94;1803120;78;22064;-64
2022/07/26 05:29:03;;;;;;;8.75;4.10;;;;;;;22.28;100.00;99188.36;1800643;78;20995;-63
2022/07/26 05:31:30;;;;;;;8.40;4.37;;;;;;;22.34;100.00;99190.33;1790341;78;21015;-65
2022/07/26 05:33:56;;;;;;;9.50;4.35;;;;;;;22.35;100.00;99185.48;1786437;78;20987;-65
2022/07/26 05:36:23;;;;;;;8.00;4.22;;;;;;;22.40;100.00;99188.49;1793650;78;20968;-65
2022/07/26 05:38:49;;;;;;;8.35;3.87;;;;;;;22.45;100.00;99190.24;1788349;78;21128;-65
2022/07/26 05:41:16;;;;;;;8.10;3.83;;;;;;;22.50;100.00;99184.20;1790246;78;21520;-66
2022/07/26 05:43:42;;;;;;;6.62;3.12;;;;;;;22.58;100.00;99186.37;1801478;78;21035;-66
2022/07/26 05:46:12;;;;;;;7.12;3.22;;;;;;;22.61;100.00;99186.17;1754830;80;21069;-66
2022/07/26 05:48:38;;;;;;;9.55;4.12;;;;;;;22.64;100.00;99185.34;1796776;78;21050;-65
2022/07/26 05:51:05;;;;;;;10.10;4.03;;;;;;;22.79;100.00;99182.45;1807316;78;21121;-65
2022/07/26 05:53:33;;;;;;;7.15;3.85;;;;;;;22.97;100.00;99179.50;1801630;78;21031;-65
2022/07/26 05:55:59;;;;;;;7.90;3.60;;;;;;;23.04;100.00;99177.23;1798615;78;21042;-66
2022/07/26 05:58:26;;;;;;;8.65;4.22;;;;;;;23.09;100.00;99179.00;1795082;78;21475;-66
2022/07/26 06:00:52;;;;;;;13.25;4.12;;;;;;;23.20;100.00;99182.33;1788147;78;21503;-65
2022/07/26 06:03:21;;;;;;;6.58;3.50;;;;;;;23.31;100.00;99180.80;1792620;78;21073;-65
2022/07/26 06:05:55;;;;;;;6.75;4.10;;;;;;;23.41;100.00;99176.31;1798539;78;21463;-66
2022/07/26 06:08:22;;;;;;;9.58;4.90;;;;;;;23.53;100.00;99176.39;1795217;78;21054;-65
2022/07/26 06:10:50;;;;;;;7.08;4.00;;;;;;;23.57;100.00;99172.95;1792205;78;20987;-64
2022/07/26 06:13:16;;;;;;;8.00;3.45;;;;;;;23.59;100.00;99176.15;1791112;78;21077;-66
2022/07/26 06:15:43;;;;;;;9.95;3.30;;;;;;;23.71;100.00;99173.41;1786394;78;21114;-65
2022/07/26 06:18:10;;;;;;;11.65;3.95;;;;;;;23.83;100.00;99168.63;1788375;78;20979;-65
2022/07/26 06:20:46;;;;;;;5.97;2.90;;;;;;;23.93;100.00;99168.93;1789312;78;21026;-65
2022/07/26 06:23:12;;;;;;;3.77;2.35;;;;;;;23.97;100.00;99168.26;1800172;78;20988;-65
2022/07/26 06:25:39;;;;;;;10.82;2.70;;;;;;;23.94;100.00;99157.25;1801198;78;21014;-64
2022/07/26 06:28:08;;;;;;;6.45;2.83;;;;;;;23.90;100.00;99156.48;1751582;80;21434;-66
2022/07/26 06:30:37;;;;;;;7.42;2.80;;;;;;;23.88;100.00;99151.92;1810458;78;20991;-67
2022/07/26 06:33:04;;;;;;;9.08;3.15;;;;;;;23.90;100.00;99152.27;1803071;78;21565;-66
2022/07/26 06:35:30;;;;;;;10.60;3.35;;;;;;;23.89;100.00;99153.50;1800785;78;21098;-66
2022/07/26 06:37:58;;;;;;;8.93;3.27;;;;;;;23.87;100.00;99146.69;1801120;78;20947;-65
2022/07/26 06:40:25;;;;;;;9.88;3.58;;;;;;;23.91;100.00;99155.89;1806496;78;21069;-65
2022/07/26 06:42:51;;;;;;;10.28;3.25;;;;;;;23.96;100.00;99151.20;1811669;78;21471;-65
2022/07/26 06:45:18;;;;;;;10.90;3.42;;;;;;;24.05;100.00;99147.88;1810821;78;21456;-65
2022/07/26 06:47:44;;;;;;;12.90;3.42;;;;;;;24.15;100.00;99139.91;1809817;78;21003;-66
2022/07/26 06:50:11;;;;;;;9.93;3.70;;;;;;;24.27;100.00;99144.20;1799033;78;20992;-66
2022/07/26 06:52:37;;;;;;;10.82;3.00;;;;;;;24.35;100.00;99132.22;1812771;78;21089;-66
2022/07/26 06:55:04;;;;;;;8.43;3.37;;;;;;;24.41;100.00;99134.73;1767741;80;21011;-65
2022/07/26 06:57:31;;;;;;;4.80;3.30;;;;;;;24.44;100.00;99135.91;1751121;81;21006;-66
2022/07/26 06:59:57;;;;;;;5.97;2.98;;;;;;;24.36;100.00;99128.17;1759326;80;21008;-66
2022/07/26 07:02:25;;;;;;;7.67;3.25;;;;;;;24.35;100.00;99133.63;1737887;81;21542;-66
2022/07/26 07:04:51;;;;;;;16.17;3.72;;;;;;;24.29;100.00;99126.25;1753918;80;21136;-67
2022/07/26 07:07:18;;;;;;;7.65;3.98;;;;;;;24.25;100.00;99126.94;1770013;80;21043;-66
2022/07/26 07:09:44;;;;;;;10.65;5.75;;;;;;;24.31;100.00;99128.04;1769832;80;21125;-64
2022/07/26 07:12:11;;;;;;;7.67;3.50;;;;;;;24.42;100.00;99125.68;1764889;80;21048;-67
2022/07/26 07:14:38;;;;;;;6.22;3.37;;;;;;;24.54;100.00;99134.15;1758460;80;21015;-66
2022/07/26 07:17:05;;;;;;;10.10;3.15;;;;;;;24.60;100.00;99135.25;1763527;81;21129;-66
2022/07/26 07:19:34;;;;;;;6.03;3.05;;;;;;;24.66;100.00;99126.52;1748951;81;21070;-66
2022/07/26 07:22:03;;;;;;;9.58;3.47;;;;;;;24.71;100.00;99125.84;1772167;80;21062;-66
2022/07/26 07:24:30;;;;;;;5.35;2.60;;;;;;;24.74;100.00;99120.15;1763816;80;21011;-66
2022/07/26 07:26:59;;;;;;;5.40;2.80;;;;;;;24.84;100.00;99119.00;1744876;81;21028;-66
2022/07/26 07:29:26;;;;;;;6.80;3.37;;;;;;;24.90;100.00;99115.88;1773102;80;21502;-66
2022/07/26 07:31:53;;;;;;;5.08;2.30;;;;;;;25.01;100.00;99112.91;1786229;80;21452;-67
2022/07/26 07:34:21;;;;;;;4.97;2.62;;;;;;;25.14;100.00;99109.65;1750014;81;21008;-67
2022/07/26 07:36:49;;;;;;;4.92;2.75;;;;;;;25.27;100.00;99113.22;1750888;81;21091;-66
2022/07/26 07:39:16;;;;;;;6.40;2.92;;;;;;;25.28;100.00;99105.74;1734607;81;21532;-66
2022/07/26 07:41:45;;;;;;;8.60;2.77;;;;;;;25.36;100.00;99112.66;1733859;82;21755;-64
2022/07/26 07:44:11;;;;;;;8.88;3.45;;;;;;;25.42;100.00;99108.73;1762604;80;21000;-65
2022/07/26 07:46:38;;;;;;;8.70;2.92;;;;;;;25.39;100.00;99107.56;1766800;80;21012;-66
2022/07/26 07:49:05;;;;;;;5.47;2.50;;;;;;;25.31;100.00;99109.73;1770149;80;21379;-66
2022/07/26 07:51:32;;;;;;;7.50;2.58;;;;;;;25.40;100.00;99110.58;1771330;80;21032;-67
2022/07/26 07:53:59;;;;;;;6.67;2.37;;;;;;;25.59;100.00;99111.80;1773000;80;21203;-65
2022/07/26 07:56:25;;;;;;;3.58;2.40;;;;;;;25.81;100.00;99111.38;1771931;80;21003;-67
2022/07/26 07:58:52;;;;;;;5.40;2.30;;;;;;;26.04;100.00;99117.35;1764864;80;21000;-67
2022/07/26 08:01:20;;;;;;;3.27;2.17;;;;;;;26.11;100.00;99111.56;1771054;80;21578;-67
2022/07/26 08:03:47;;;;;;;4.45;2.40;;;;;;;26.10;100.00;99124.09;1774129;80;21469;-68
2022/07/26 08:06:13;;;;;;;3.62;2.40;;;;;;;26.28;100.00;99124.28;1771553;80;21468;-68
2022/07/26 08:08:40;;;;;;;10.60;2.50;;;;;;;26.42;100.00;99121.17;1771107;80;21047;-68
2022/07/26 08:11:07;;;;;;;6.45;2.52;;;;;;;26.48;100.00;99127.07;1773720;80;21141;-68
2022/07/26 08:13:36;;;;;;;4.62;2.50;;;;;;;26.52;100.00;99122.14;1771428;80;21047;-67
2022/07/26 08:16:05;;;;;;;4.45;2.50;;;;;;;26.36;100.00;99124.33;1770181;80;21062;-68
2022/07/26 08:18:31;;;;;;;4.60;2.55;;;;;;;26.21;100.00;99117.58;1751239;80;21586;-70
2022/07/26 08:21:02;;;;;;;6.05;2.62;;;;;;;26.16;100.00;99116.69;1777110;80;21046;-68
2022/07/26 08:23:30;;;;;;;9.18;2.60;;;;;;;26.16;100.00;99116.69;1760877;80;21084;-69
2022/07/26 08:25:57;;;;;;;5.37;2.75;;;;;;;26.08;100.00;99110.42;1777072;80;20976;-67
2022/07/26 08:28:26;;;;;;;4.92;2.20;;;;;;;25.96;100.00;99118.14;1775459;80;21067;-65
2022/07/26 08:30:53;;;;;;;4.70;2.10;;;;;;;25.77;100.00;99119.13;1776370;80;21278;-68
2022/07/26 08:33:19;;;;;;;3.40;1.98;;;;;;;25.71;100.00;99114.61;1753048;80;21014;-66
2022/07/26 08:35:46;;;;;;;5.55;1.87;;;;;;;25.78;100.00;99106.61;1774487;80;21042;-67
2022/07/26 08:38:12;;;;;;;2.58;1.70;;;;;;;25.92;100.00;99116.00;1750917;81;21055;-67
2022/07/26 08:40:39;;;;;;;2.92;1.70;;;;;;;26.09;100.00;99112.00;1738994;81;20957;-67
2022/07/26 08:43:05;;;;;;;4.58;1.87;;;;;;;26.30;100.00;99112.75;1747064;80;21811;-68
2022/07/26 08:45:33;;;;;;;5.37;2.30;;;;;;;26.39;100.00;99111.38;1756286;80;21496;-67
2022/07/26 08:48:03;;;;;;;8.25;2.72;;;;;;;26.33;100.00;99112.47;1747904;80;21079;-66
2022/07/26 08:50:28;;;;;;;6.70;2.62;;;;;;;26.14;100.00;99116.32;1763612;80;21465;-67
2022/07/26 08:52:59;;;;;;;7.60;2.47;;;;;;;26.06;100.00;99108.64;1771199;80;20988;-67
2022/07/26 08:55:25;;;;;;;3.47;2.00;;;;;;;26.00;100.00;99112.59;1767173;80;21122;-66
2022/07/26 08:57:51;;;;;;;9.43;2.37;;;;;;;26.08;100.00;99107.59;1736372;82;21052;-67
2022/07/26 09:00:24;;;;;;;5.03;2.42;;;;;;;26.21;100.00;99113.34;1738424;82;21488;-67
2022/07/26 09:02:52;;;;;;;3.98;2.27;;;;;;;26.33;100.00;99104.00;1744269;82;21055;-67
2022/07/26 09:05:26;;;;;;;3.25;2.62;;;;;;;26.42;100.00;99100.00;1721437;83;22170;-67
2022/07/26 09:07:52;;;;;;;7.55;2.70;;;;;;;26.51;100.00;99103.63;1757527;80;21506;-66
2022/07/26 09:10:19;;;;;;;4.87;2.50;;;;;;;26.60;100.00;99098.14;1742242;81;21406;-65
2022/07/26 09:12:48;;;;;;;5.22;2.80;;;;;;;26.59;100.00;99095.16;1753729;80;21089;-66
2022/07/26 09:15:22;;;;;;;7.35;2.62;;;;;;;26.65;100.00;99100.27;1670652;83;20998;-66
2022/07/26 09:17:53;;;;;;;3.50;2.00;;;;;;;26.62;100.00;99090.64;1724999;81;21023;-65
2022/07/26 09:20:26;;;;;;;2.20;1.62;;;;;;;26.68;100.00;99092.33;1735511;81;21551;-65
2022/07/26 09:23:08;;;;;;;3.75;1.90;;;;;;;26.82;100.00;99089.12;1750735;80;20995;-66
2022/07/26 09:25:41;;;;;;;5.67;2.58;;;;;;;26.97;100.00;99083.89;1717115;82;21479;-64
2022/07/26 09:28:28;;;;;;;4.55;2.85;;;;;;;27.12;100.00;99082.13;1724448;82;21069;-66
2022/07/26 09:31:04;;;;;;;2.45;1.98;;;;;;;27.21;100.00;99075.84;1713871;82;21529;-67
2022/07/26 09:33:46;;;;;;;2.67;1.80;;;;;;;27.17;100.00;99076.55;1717295;82;21093;-66
2022/07/26 09:36:14;;;;;;;2.85;1.85;;;;;;;27.33;100.00;99082.14;1717027;82;21022;-67
2022/07/26 09:38:42;;;;;;;4.03;1.98;;;;;;;27.51;100.00;99078.64;1717925;82;21061;-65
2022/07/26 09:41:30;;;;;;;2.55;1.47;;;;;;;27.60;100.00;99080.20;1714751;82;21017;-66
2022/07/26 09:44:00;;;;;;;2.37;1.87;;;;;;;27.75;100.00;99076.97;1716106;82;21015;-66
2022/07/26 09:46:28;;;;;;;3.10;1.92;;;;;;;27.90;100.00;99072.47;1740218;81;21133;-67
2022/07/26 09:48:56;;;;;;;3.62;2.05;;;;;;;28.04;100.00;99074.69;1753740;80;21003;-67
2022/07/26 09:51:44;;;;;;;2.72;1.82;;;;;;;28.10;97.52;99075.70;1793296;78;21015;-66
2022/07/26 09:54:17;;;;;;;7.85;2.47;;;;;;;27.98;100.00;99069.42;1797637;78;20963;-65
2022/07/26 09:56:49;;;;;;;7.97;2.00;;;;;;;28.04;100.00;99071.85;1804393;78;21014;-66
2022/07/26 09:59:20;;;;;;;3.47;2.00;;;;;;;28.17;100.00;99067.59;1795051;78;21015;-66
2022/07/26 10:01:47;;;;;;;3.83;2.08;;;;;;;28.19;100.00;99068.75;1751303;80;21046;-65
2022/07/26 10:04:15;;;;;;;4.17;3.00;;;;;;;28.23;100.00;99072.08;1724567;81;21043;-66
2022/07/26 10:06:44;;;;;;;7.65;2.42;;;;;;;28.29;100.00;99078.14;1748113;80;21245;-66
2022/07/26 10:09:10;;;;;;;4.20;2.42;;;;;;;28.41;100.00;99082.85;1801423;78;21058;-65
2022/07/26 10:11:55;;;;;;;4.42;2.12;;;;;;;28.54;94.45;99080.02;1800681;78;21091;-64
2022/07/26 10:14:39;;;;;;;3.22;1.90;;;;;;;28.42;93.97;99080.98;1746561;81;21004;-64
2022/07/26 10:17:38;;;;;;;3.85;1.72;;;;;;;28.51;96.67;99070.99;1748675;81;21508;-65
2022/07/26 10:20:06;;;;;;;10.32;2.20;;;;;;;28.71;97.58;99062.87;1737599;81;21023;-65
2022/07/26 10:22:46;;;;;;;5.37;1.82;;;;;;;28.92;96.91;99064.95;1746436;81;21492;-65
2022/07/26 10:25:21;;;;;;;4.95;2.87;;;;;;;29.10;95.97;99067.02;1747911;81;21543;-65
2022/07/26 10:27:52;;;;;;;4.85;2.60;;;;;;;29.10;92.48;99062.77;1710414;83;21193;-65
2022/07/26 10:30:25;;;;;;;10.40;2.00;;;;;;;29.03;91.13;99059.56;1748377;80;21071;-64
2022/07/26 10:33:06;;;;;;;2.92;2.25;;;;;;;29.10;89.68;99058.52;1741276;81;21501;-66
2022/07/26 10:35:42;;;;;;;3.58;2.20;;;;;;;28.92;90.35;99062.73;1740326;81;21121;-64
2022/07/26 10:38:11;;;;;;;3.37;1.67;;;;;;;28.83;92.21;99058.42;1746006;81;21244;-64
2022/07/26 10:41:00;;;;;;;3.92;1.80;;;;;;;28.88;94.08;99059.25;1748952;80;21004;-64
2022/07/26 10:43:27;;;;;;;4.92;2.27;;;;;;;28.91;91.56;99060.55;1685362;83;20990;-64
2022/07/26 10:46:22;;;;;;;5.25;1.82;;;;;;;28.96;91.64;99060.58;1665162;85;21013;-64
2022/07/26 10:49:05;;;;;;;4.47;1.95;;;;;;;28.89;90.89;99060.83;1657010;84;21149;-65
2022/07/26 10:51:37;;;;;;;3.27;1.67;;;;;;;28.99;92.65;99061.72;1692432;83;21532;-65
2022/07/26 10:54:09;;;;;;;7.00;1.87;;;;;;;29.04;87.42;99069.03;1689007;83;21049;-64
2022/07/26 10:56:35;;;;;;;4.20;1.85;;;;;;;29.09;88.43;99060.55;1686610;85;21845;-64
2022/07/26 10:59:03;;;;;;;3.47;1.70;;;;;;;29.20;85.37;99053.70;1657017;86;21516;-65
2022/07/26 11:01:36;;;;;;;3.30;1.80;;;;;;;29.36;87.35;99053.50;1661627;84;21084;-65
2022/07/26 11:04:03;;;;;;;;;;;;;;;29.50;88.22;99051.38;1670876;85;21124;-64
2022/07/26 11:06:30;;;;;;;5.10;2.20;;;;;;;29.49;85.02;99058.32;1661924;84;20170;-65
2022/07/26 11:08:56;;;;;;;4.62;2.02;;;;;;;29.30;83.17;99053.94;1698122;83;21015;-65
2022/07/26 11:11:31;;;;;;;15.10;2.85;;;;;;;29.04;84.39;99052.02;1723362;80;21539;-65
2022/07/26 11:14:09;;;;;;;6.60;2.20;;;;;;;28.92;85.85;99045.11;1711958;82;21008;-65
2022/07/26 11:16:40;;;;;;;5.70;1.62;;;;;;;28.94;87.08;99050.33;1704262;82;21172;-65
2022/07/26 11:19:19;;;;;;;4.72;1.95;;;;;;;28.92;86.89;99054.23;1691743;83;21573;-65
2022/07/26 11:21:58;;;;;;;2.02;1.50;;;;;;;28.86;88.74;99054.66;1700421;83;21462;-65
2022/07/26 11:24:25;;;;;;;4.85;1.92;;;;;;;28.81;89.43;99050.38;1698661;83;21496;-65
2022/07/26 11:26:52;;;;;;;3.27;1.65;;;;;;;28.95;91.34;99049.06;1701014;83;21529;-66
2022/07/26 11:29:30;;;;;;;2.80;2.00;;;;;;;29.10;91.40;99038.67;1699035;83;21203;-66
2022/07/26 11:31:57;;;;;;;1.62;1.52;;;;;;;29.29;90.74;99045.28;1705947;82;21080;-65
2022/07/26 11:34:28;;;;;;;2.40;1.98;;;;;;;29.46;85.60;99037.98;1696992;83;21052;-65
2022/07/26 11:36:57;;;;;;;3.87;1.90;;;;;;;29.62;89.20;99043.45;1697728;83;21521;-65
2022/07/26 11:39:26;;;;;;;6.03;2.05;;;;;;;29.71;83.32;99039.89;1694982;84;20970;-65